Terminal Aerodrome Forecast
Issued by NWS

Home | Current Version | Previous Version | Text Only | Print | Product List | Glossary On
Versions: 1 2 3 4 5 6 7 8 9 10
211
FTUS43 KMPX 201739
TAFRWF
TAF
KRWF 201739Z 2018/2118 32014G23KT P6SM OVC012
     FM202100 32013G20KT P6SM OVC025
     FM210100 34006KT P6SM BKN035
     FM210600 33006KT P6SM FEW030=

USA.gov is the U.S. government's official web portal to all federal, state and local government web resources and services.